Latest Weather Observations for Edinburgh

IDS60801

Issued at 9:41 pm CDT Thursday 17 January 2019 (issued every 10 minutes, with the page automatically refreshed every 10 minutes)

About weather observations | Map of weather stations | Latest weather observations for SA | Other Formats
Station Details ID: 023083 Name: EDINBURGH RAAF Lat: -34.71 Lon: 138.62 Height: 16.54 m
Data from the previous 72 hours. | See also: Recent months at Edinburgh
Date/Time
CDT
Temp
°C
App
Temp
°C
Dew
Point
°C
Rel
Hum
%
Delta-T
°C
Wind Press
QNH
hPa
Press
MSL
hPa
Rain since
9am
mm
Dir  Spd
km/h
Gust
km/h
Spd
kts
Gust
kts
17/09:30pm 31.7 29.8 10.4 27 12.2 SSE 11 20 6 11 1007.1 1007.1 0.0
17/09:00pm 31.6 29.1 10.9 28 12.0 S 15 24 8 13 1007.2 1007.2 0.0
17/08:30pm 31.2 28.6 12.1 31 11.3 SE 17 24 9 13 1006.8 1006.8 0.0
17/08:00pm 31.1 28.1 12.5 32 11.0 S 20 28 11 15 1007.3 1007.3 0.0
17/07:30pm 31.2 27.6 13.0 33 10.9 S 24 33 13 18 1007.2 1007.2 0.0
17/07:00pm 31.2 25.5 13.0 33 10.8 SSW 35 44 19 24 1007.2 1007.2 0.0
17/06:30pm 31.4 25.1 12.2 30 11.3 SSW 37 48 20 26 1006.9 1006.9 0.0
17/06:00pm 31.7 24.9 12.0 30 11.6 SSW 39 52 21 28 1006.5 1006.5 0.0
17/05:30pm 31.4 26.0 12.2 30 11.3 S 32 43 17 23 1006.3 1006.3 0.0
17/05:00pm 29.6 24.1 15.7 43 8.6 SSW 39 48 21 26 1006.3 1006.3 0.0
17/04:30pm 30.2 23.5 14.7 39 9.5 SSW 43 52 23 28 1006.0 1006.0 0.0
17/04:03pm 32.1 25.8 14.7 35 10.7 SW 41 59 22 32 1005.7 1005.7 0.0
17/04:00pm 32.8 26.2 14.9 34 11.0 SW 43 59 23 32 1005.7 1005.7 0.0
17/03:54pm 33.0 26.0 13.6 31 11.8 SW 43 61 23 33 1005.5 1005.5 0.0
17/03:48pm 38.2 32.2 12.0 21 15.8 SW 35 56 19 30 1005.4 1005.4 0.0
17/03:30pm 39.5 33.2 9.0 16 17.8 SW 32 37 17 20 1005.2 1005.2 0.0
17/03:00pm 40.1 38.4 8.5 15 18.3 ENE 7 20 4 11 1005.9 1005.9 0.0
17/02:30pm 39.0 35.6 7.7 15 17.8 NNE 15 24 8 13 1006.3 1006.3 0.0
17/02:00pm 38.8 35.8 7.5 15 17.7 NNE 13 20 7 11 1006.4 1006.4 0.0
17/01:30pm 38.6 36.2 10.0 18 16.8 SW 13 20 7 11 1006.5 1006.5 0.0
17/01:00pm 37.9 35.9 10.3 19 16.2 WSW 11 17 6 9 1006.9 1006.9 0.0
17/12:30pm 37.2 35.7 10.5 20 15.7 SSW 9 15 5 8 1007.1 1007.1 0.0
17/12:00pm 37.1 36.3 11.8 22 15.2 SE 7 11 4 6 1007.6 1007.6 0.0
17/11:30am 36.3 35.2 13.1 25 14.2 S 11 17 6 9 1007.8 1007.8 0.0
17/11:00am 34.6 32.4 14.5 30 12.4 SW 19 24 10 13 1007.9 1007.9 0.0
17/10:30am 35.3 34.3 12.3 25 13.8 SSE 9 13 5 7 1007.7 1007.7 0.0
17/10:00am 32.5 32.8 15.1 35 10.8 SSE 7 9 4 5 1008.1 1008.1 0.0
17/09:30am 29.3 28.8 15.8 44 8.4 SW 13 15 7 8 1008.9 1008.8 0.0
17/09:00am 29.6 29.1 15.0 41 8.9 W 11 15 6 8 1008.8 1008.7 0.0
17/08:30am 27.7 27.4 15.4 47 7.5 WSW 11 17 6 9 1008.5 1008.5 0.0
17/08:00am 27.6 26.8 13.9 43 8.2 ESE 11 30 6 16 1007.9 1007.9 0.0
17/07:30am 26.9 28.0 13.6 44 7.9 CALM 0 0 0 0 1007.5 1007.5 0.0
17/07:00am 26.6 25.6 13.3 43 7.8 N 11 15 6 8 1007.7 1007.7 0.0
17/06:30am 26.0 25.0 14.5 49 6.9 NE 13 17 7 9 1007.7 1007.7 0.0
17/06:00am 26.1 25.5 14.6 49 6.9 N 11 15 6 8 1008.1 1008.1 0.0
17/05:30am 25.7 26.8 14.5 50 6.7 WSW 2 7 1 4 1007.2 1007.2 0.0
17/05:00am 26.5 26.3 14.6 48 7.1 SSE 9 11 5 6 1006.4 1006.4 0.0
17/04:30am 25.9 26.2 14.4 49 6.9 ESE 6 9 3 5 1007.7 1007.7 0.0
17/04:00am 25.5 24.8 14.3 50 6.7 S 11 17 6 9 1008.1 1008.1 0.0
17/03:30am 25.9 25.1 15.0 51 6.6 S 13 17 7 9 1008.1 1008.1 0.0
17/03:00am 26.2 25.2 15.6 52 6.5 S 15 19 8 10 1008.7 1008.6 0.0
17/02:30am 25.6 24.6 16.5 57 5.6 S 17 24 9 13 1009.2 1009.1 0.0
17/02:00am 24.5 22.3 18.7 70 3.7 SW 28 50 15 27 1009.4 1009.3 0.0
17/01:44am 25.1 24.8 18.3 66 4.3 NNW 17 50 9 27 1008.7 1008.6 0.0
17/01:30am 26.6 26.6 16.2 52 6.4 N 11 13 6 7 1007.7 1007.7 0.0
17/01:00am 26.9 27.3 16.2 52 6.6 NNE 9 13 5 7 1007.8 1007.8 0.0
17/12:30am 26.7 27.2 17.5 57 5.8 ENE 11 13 6 7 1007.5 1007.5 0.0
17/12:00am 25.7 26.6 18.4 64 4.6 N 11 15 6 8 1008.3 1008.3 0.0
 
Date/Time
CDT
Temp
°C
App
Temp
°C
Dew
Point
°C
Rel
Hum
%
Delta-T
°C
Wind Press
QNH
hPa
Press
MSL
hPa
Rain since
9am
mm
Dir  Spd
km/h
Gust
km/h
Spd
kts
Gust
kts
16/11:30pm 25.6 27.2 18.3 64 4.6 NW 7 11 4 6 1008.3 1008.3 0.0
16/11:00pm 26.1 27.5 17.7 60 5.3 WNW 7 17 4 9 1007.8 1007.8 0.0
16/10:30pm 26.7 26.8 17.5 57 5.8 WNW 13 17 7 9 1007.8 1007.8 0.0
16/10:00pm 28.9 26.2 14.7 42 8.6 WNW 22 30 12 16 1008.0 1008.0 0.0
16/09:30pm 31.8 29.5 11.6 29 11.8 NNW 15 19 8 10 1006.7 1006.7 0.0
16/09:00pm 33.6 31.4 10.9 25 13.3 SSW 13 24 7 13 1005.7 1005.7 0.0
16/08:30pm 34.8 30.8 10.6 23 14.2 W 22 35 12 19 1005.5 1005.5 0.0
16/08:00pm 37.5 32.3 7.4 16 16.9 WSW 24 32 13 17 1005.7 1005.7 0.0
16/07:30pm 37.9 31.5 6.8 15 17.4 NW 30 43 16 23 1005.9 1005.9 0.0
16/07:00pm 38.4 31.4 6.2 14 17.9 NNW 32 63 17 34 1005.6 1005.6 0.0
16/06:51pm 38.2 31.7 8.0 16 17.2 NNW 32 63 17 34 1006.1 1006.1 0.0
16/06:32pm 37.3 31.6 8.2 17 16.6 N 28 48 15 26 1005.6 1005.6 0.0
16/06:30pm 37.6 32.1 7.5 16 17.0 N 26 48 14 26 1005.5 1005.5 0.0
16/06:00pm 36.5 30.8 8.4 18 16.0 WNW 28 37 15 20 1006.1 1006.1 0.0
16/05:34pm 35.5 30.2 9.8 21 14.9 WNW 28 46 15 25 1006.2 1006.2 0.0
16/05:30pm 36.6 31.7 8.4 18 16.1 NW 24 35 13 19 1006.0 1006.0 0.0
16/05:00pm 38.7 35.3 4.2 12 18.6 NNW 11 20 6 11 1004.7 1004.7 0.0
16/04:30pm 39.3 35.0 3.4 11 19.2 N 15 22 8 12 1005.2 1005.2 0.0
16/04:00pm 38.7 35.0 4.2 12 18.6 NNW 13 22 7 12 1005.7 1005.7 0.0
16/03:30pm 39.6 35.2 4.9 12 19.0 N 17 20 9 11 1005.6 1005.6 0.0
16/03:00pm 39.5 35.1 4.8 12 19.0 NE 17 28 9 15 1005.4 1005.4 0.0
16/02:30pm 38.2 31.7 2.6 11 18.7 NE 26 32 14 17 1006.0 1006.0 0.0
16/02:00pm 38.9 34.3 1.8 10 19.3 N 15 20 8 11 1007.3 1007.3 0.0
16/01:30pm 39.9 36.4 1.1 9 20.1 N 9 13 5 7 1007.2 1007.2 0.0
16/01:00pm 39.5 36.3 0.8 9 19.9 NE 7 11 4 6 1007.6 1007.6 0.0
16/12:30pm 38.4 35.3 1.4 10 19.1 ENE 7 11 4 6 1007.8 1007.8 0.0
16/12:00pm 37.7 34.0 2.2 11 18.5 ENE 11 15 6 8 1008.3 1008.3 0.0
16/11:30am 36.8 32.6 1.5 11 18.1 ENE 13 17 7 9 1008.7 1008.6 0.0
16/11:00am 35.6 32.8 3.0 13 17.0 NNE 7 13 4 7 1009.1 1009.0 0.0
16/10:30am 33.9 30.4 5.4 17 15.3 ENE 13 19 7 10 1008.9 1008.8 0.0
16/10:00am 30.5 28.6 7.7 24 12.4 ESE 7 9 4 5 1009.5 1009.4 0.0
16/09:30am 28.1 26.1 10.3 33 10.0 ESE 11 17 6 9 1009.5 1009.4 0.0
16/09:00am 26.4 26.1 13.2 44 7.7 SSE 7 17 4 9 1010.2 1010.1 0.0
16/08:30am 25.6 25.3 14.4 50 6.7 S 9 13 5 7 1010.1 1010.0 0.0
16/08:00am 24.9 24.1 15.2 54 5.8 S 13 17 7 9 1009.8 1009.7 0.0
16/07:30am 24.0 22.3 13.5 52 6.1 SSE 15 19 8 10 1009.4 1009.3 0.0
16/07:00am 23.1 20.6 8.4 39 7.8 S 11 13 6 7 1009.6 1009.5 0.0
16/06:30am 21.0 18.8 8.0 43 6.8 S 9 15 5 8 1009.1 1009.0 0.0
16/06:00am 20.0 17.4 7.7 45 6.3 W 11 13 6 7 1008.3 1008.3 0.0
16/05:30am 20.5 18.8 8.2 45 6.4 N 7 9 4 5 1007.2 1007.2 0.0
16/05:00am 19.6 17.9 10.0 54 5.1 NNW 9 11 5 6 1007.0 1007.0 0.0
16/04:30am 21.0 21.3 10.8 52 5.6 CALM 0 0 0 0 1007.0 1007.0 0.0
16/04:00am 22.7 21.5 10.2 45 6.8 E 7 9 4 5 1007.0 1007.0 0.0
16/03:30am 21.3 21.0 12.7 58 4.9 NNE 6 7 3 4 1007.6 1007.6 0.0
16/03:00am 21.0 20.7 13.4 62 4.4 NW 7 9 4 5 1007.8 1007.8 0.0
16/02:30am 22.1 21.7 14.2 61 4.6 NW 9 13 5 7 1007.9 1007.9 0.0
16/02:00am 24.0 24.2 10.7 43 7.4 CALM 0 6 0 3 1008.1 1008.1 0.0
16/01:30am 24.7 21.2 7.4 33 9.1 WNW 15 19 8 10 1008.3 1008.3 0.0
16/01:00am 26.3 24.2 4.1 24 11.1 NW 4 9 2 5 1008.1 1008.1 0.0
16/12:30am 29.3 26.1 3.3 19 13.1 E 9 13 5 7 1008.2 1008.2 0.0
16/12:00am 28.1 27.6 12.5 38 9.1 ESE 7 11 4 6 1008.5 1008.5 0.0
 
Date/Time
CDT
Temp
°C
App
Temp
°C
Dew
Point
°C
Rel
Hum
%
Delta-T
°C
Wind Press
QNH
hPa
Press
MSL
hPa
Rain since
9am
mm
Dir  Spd
km/h
Gust
km/h
Spd
kts
Gust
kts
15/11:30pm 27.6 27.1 13.9 43 8.2 ESE 9 15 5 8 1009.1 1009.0 0.0
15/11:00pm 26.4 25.7 15.4 50 6.7 SW 13 24 7 13 1009.1 1009.0 0.0
15/10:30pm 29.5 26.0 3.5 19 13.2 NNE 11 15 6 8 1008.3 1008.3 0.0
15/10:00pm 29.9 26.2 4.5 20 13.1 NE 13 15 7 8 1008.1 1008.1 0.0
15/09:30pm 30.5 28.2 5.0 20 13.3 SE 6 9 3 5 1008.2 1008.2 0.0
15/09:00pm 30.3 27.0 6.2 22 12.8 SSW 13 19 7 10 1008.5 1008.5 0.0
15/08:30pm 31.3 27.0 9.5 26 12.3 SSW 22 32 12 17 1008.3 1008.3 0.0
15/08:00pm 32.6 30.0 10.6 26 12.7 SW 15 19 8 10 1007.6 1007.6 0.0
15/07:53pm 33.7 31.5 13.2 29 12.4 WSW 17 24 9 13 1007.5 1007.5 0.0
15/07:30pm 38.7 35.7 4.2 12 18.6 W 9 13 5 7 1007.4 1007.4 0.0
15/07:00pm 40.2 35.6 -4.2 6 21.2 SW 11 15 6 8 1007.3 1007.3 0.0
15/06:30pm 40.7 35.2 -1.8 7 21.2 SW 17 20 9 11 1007.1 1007.1 0.0
15/06:00pm 40.3 35.3 1.4 9 20.3 SW 17 22 9 12 1007.2 1007.2 0.0
15/05:30pm 40.5 34.2 1.5 9 20.4 SW 24 33 13 18 1007.3 1007.3 0.0
15/05:00pm 40.8 34.1 1.7 9 20.5 SW 26 35 14 19 1007.4 1007.4 0.0
15/04:30pm 41.2 35.9 2.0 9 20.8 SSW 19 26 10 14 1007.6 1007.6 0.0
15/04:00pm 40.7 35.4 1.7 9 20.5 SSW 19 26 10 14 1007.7 1007.7 0.0
15/03:30pm 40.6 35.1 1.6 9 20.5 SSW 20 30 11 16 1007.9 1007.9 0.0
15/03:00pm 40.1 34.1 1.2 9 20.2 SSW 22 30 12 16 1008.3 1008.3 0.0
15/02:30pm 38.8 30.8 0.3 9 19.6 SSW 32 41 17 22 1008.7 1008.6 0.0
15/02:00pm 38.3 30.6 -0.1 9 19.3 SSW 30 39 16 21 1009.1 1009.0 0.0
15/01:30pm 36.3 28.2 1.2 11 17.8 SSW 33 43 18 23 1009.5 1009.4 0.0
15/01:00pm 33.9 24.8 1.6 13 16.3 SSW 39 54 21 29 1009.8 1009.7 0.0
15/12:30pm 32.1 22.4 9.0 24 13.0 SW 50 63 27 34 1009.4 1009.3 0.0
15/12:23pm 32.6 24.3 10.0 25 12.9 SW 44 63 24 34 1009.0 1008.9 0.0
15/12:12pm 38.4 34.2 8.1 16 17.3 W 20 39 11 21 1008.3 1008.3 0.0
15/12:00pm 40.2 36.7 1.3 9 20.3 WNW 9 17 5 9 1008.3 1008.3 0.0
15/11:30am 39.0 35.7 0.4 9 19.7 WNW 7 19 4 10 1008.3 1008.3 0.0
15/11:00am 37.6 33.6 0.8 10 18.7 NNE 11 15 6 8 1008.3 1008.3 0.0
15/10:30am 36.0 32.1 0.9 11 17.7 N 11 15 6 8 1008.3 1008.3 0.0
15/10:00am 35.0 29.8 0.2 11 17.2 NE 17 24 9 13 1008.3 1008.3 0.0
15/09:30am 33.6 30.1 1.4 13 16.2 NE 9 13 5 7 1008.7 1008.6 0.0
15/09:00am 30.6 27.8 1.9 16 14.2 NE 6 9 3 5 1009.0 1008.9 0.0
15/08:30am 28.9 26.4 3.7 20 12.8 E 6 9 3 5 1009.2 1009.1 0.0
15/08:00am 25.9 23.5 4.4 25 10.8 S 6 7 3 4 1009.2 1009.1 0.0
15/07:30am 24.0 21.6 4.4 28 9.7 S 6 7 3 4 1009.2 1009.1 0.0
15/07:00am 21.3 19.4 7.5 41 7.1 SSW 7 11 4 6 1009.2 1009.1 0.0
15/06:30am 20.4 17.5 4.4 35 7.8 SW 9 11 5 6 1009.2 1009.1 0.0
15/06:00am 20.3 18.5 3.5 33 8.0 SW 2 9 1 5 1008.7 1008.6 0.0
15/05:30am 22.7 19.3 1.7 25 9.8 ENE 9 11 5 6 1008.0 1008.0 0.0
15/05:00am 21.9 18.9 4.0 31 8.7 NE 9 13 5 7 1007.9 1007.9 0.0
15/04:30am 21.3 18.2 3.5 31 8.5 NE 9 11 5 6 1007.8 1007.8 0.0
15/04:00am 22.2 20.8 3.8 30 8.9 CALM 0 0 0 0 1007.8 1007.8 0.0
15/03:30am 21.0 19.6 3.7 32 8.3 CALM 0 4 0 2 1008.2 1008.2 0.0
15/03:00am 24.0 21.4 4.4 28 9.7 ESE 7 9 4 5 1008.5 1008.5 0.0
15/02:30am 23.5 21.0 4.9 30 9.3 SSW 7 9 4 5 1008.5 1008.5 0.0
15/02:00am 24.2 21.5 3.5 26 10.1 NE 7 9 4 5 1008.5 1008.5 0.0
15/01:30am 23.0 20.1 4.5 30 9.1 NNW 9 13 5 7 1008.8 1008.7 0.0
15/01:00am 23.3 19.5 3.8 28 9.5 WNW 13 15 7 8 1008.9 1008.8 0.0
15/12:30am 24.4 21.4 4.2 27 10.0 WNW 9 11 5 6 1008.8 1008.7 0.0
15/12:00am 25.7 23.1 3.0 23 11.1 WNW 6 7 3 4 1008.9 1008.8 0.0
 
Date/Time
CDT
Temp
°C
App
Temp
°C
Dew
Point
°C
Rel
Hum
%
Delta-T
°C
Wind Press
QNH
hPa
Press
MSL
hPa
Rain since
9am
mm
Dir  Spd
km/h
Gust
km/h
Spd
kts
Gust
kts
14/11:30pm 27.0 25.6 3.5 22 11.7 CALM 0 0 0 0 1009.1 1009.0 0.0
14/11:00pm 29.0 27.1 0.7 16 13.6 CALM 0 6 0 3 1009.2 1009.1 0.0
14/10:30pm 30.5 27.7 1.9 16 14.2 SE 6 7 3 4 1009.5 1009.4 0.0
14/10:00pm 31.3 27.9 1.6 15 14.7 SE 9 13 5 7 1009.6 1009.5 0.0

Other Formats:

Comma delimited format used in spreadsheet applications
http://www.bom.gov.au/fwo/IDS60801/IDS60801.95676.axf

JavaScript Object Notation format (JSON) in row-major order
http://www.bom.gov.au/fwo/IDS60801/IDS60801.95676.json